Capitol Logistics 2855


PANC
Ted Stevens Anchorage International Airport
Anchorage, Alaska, US
ZGHA
Changsha Huanghua International Airport
Changcha, , CN

Activity Log

Date Flight Route Aircraft Duration
No Flights Yet

Route Details

Aircraft Information
Primary: Boeing 747-400BCF
Backup: Boeing 777-200LRF
Route Data
Distance: 4128nm
Sched. Duration: 9h 44m
Avg. Duration: 0h 00m (-945m)
Times Flown: 0
Recm'd Route: ANC9 TED BGQ FFITZ J111 WINOR V320 MCG H222 VALDA N222 ARNAP T634 MONOG T634 MAGIT R213 JMU G212 HRB A588 UDETI W106 MAKNO W5 HCH W4 EKORO W37 ESMEB W37 HOK A461 DAPRO
Planned Altitude: 36,000ft
Origin Wx: PANC 290114Z 00000KT 10SM BKN005 BKN020 M02/M03 A3003 RMK AO2 T10221033
Dest. Wx: ZGHA 290100Z 36003MPS 340V040 3000 BR NSC 16/13 Q1026 NOSIG
Notes: OPERATED FOR SKYLEASE CARGO

Financial History
Total Freight: 0lbs
Average Load: 0lbs/flt
Fuel Used: 0lbs
Avg. Fuel Used: 0lbs/flt
Fuel Expense: $0
Avg. Fuel Expense: $0
Avg. Fuel Cost: $0/lbs
Total Gross Income: $0
Pilot Pay: $0
Total Expenses: $0
Total Revenue: $0
Average Revenue: $0